sensor_id;sensor_type;location;lat;lon;timestamp;P1;durP1;ratioP1;P2;durP2;ratioP2
417;SDS011;49;48.530;9.200;2022-12-28T00:08:20;28.07;;;14.90;;
417;SDS011;49;48.530;9.200;2022-12-28T00:11:54;31.57;;;15.10;;
417;SDS011;49;48.530;9.200;2022-12-28T00:14:57;23.53;;;13.47;;
417;SDS011;49;48.530;9.200;2022-12-28T00:38:27;23.23;;;12.97;;
417;SDS011;49;48.530;9.200;2022-12-28T00:48:04;29.03;;;13.40;;
417;SDS011;49;48.530;9.200;2022-12-28T00:50:59;21.47;;;12.73;;
417;SDS011;49;48.530;9.200;2022-12-28T00:53:45;24.40;;;13.07;;
417;SDS011;49;48.530;9.200;2022-12-28T01:00:12;24.87;;;14.53;;
417;SDS011;49;48.530;9.200;2022-12-28T01:02:57;25.43;;;13.90;;
417;SDS011;49;48.530;9.200;2022-12-28T01:15:09;28.73;;;16.63;;
417;SDS011;49;48.530;9.200;2022-12-28T01:20:50;28.73;;;15.50;;
417;SDS011;49;48.530;9.200;2022-12-28T01:23:39;32.53;;;16.20;;
417;SDS011;49;48.530;9.200;2022-12-28T01:26:19;33.80;;;17.30;;
417;SDS011;49;48.530;9.200;2022-12-28T01:28:57;36.73;;;17.20;;
417;SDS011;49;48.530;9.200;2022-12-28T01:31:34;32.10;;;17.37;;
417;SDS011;49;48.530;9.200;2022-12-28T01:34:07;32.50;;;19.07;;
417;SDS011;49;48.530;9.200;2022-12-28T01:36:45;31.13;;;17.50;;
417;SDS011;49;48.530;9.200;2022-12-28T01:39:28;35.70;;;16.90;;
417;SDS011;49;48.530;9.200;2022-12-28T01:42:14;27.90;;;17.03;;
417;SDS011;49;48.530;9.200;2022-12-28T01:44:44;27.60;;;16.60;;
417;SDS011;49;48.530;9.200;2022-12-28T01:50:22;34.80;;;17.27;;
417;SDS011;49;48.530;9.200;2022-12-28T01:53:14;43.03;;;18.97;;
417;SDS011;49;48.530;9.200;2022-12-28T01:55:43;32.43;;;19.07;;
417;SDS011;49;48.530;9.200;2022-12-28T01:58:29;35.83;;;19.50;;
417;SDS011;49;48.530;9.200;2022-12-28T02:01:02;34.50;;;17.37;;
417;SDS011;49;48.530;9.200;2022-12-28T02:03:49;31.50;;;17.37;;
417;SDS011;49;48.530;9.200;2022-12-28T02:06:19;33.30;;;17.43;;
417;SDS011;49;48.530;9.200;2022-12-28T02:08:55;28.47;;;18.20;;
417;SDS011;49;48.530;9.200;2022-12-28T02:11:29;32.20;;;17.10;;
417;SDS011;49;48.530;9.200;2022-12-28T02:14:02;24.73;;;15.37;;
417;SDS011;49;48.530;9.200;2022-12-28T02:16:41;26.17;;;15.63;;
417;SDS011;49;48.530;9.200;2022-12-28T02:19:29;27.17;;;16.00;;
417;SDS011;49;48.530;9.200;2022-12-28T02:22:13;32.17;;;17.33;;
417;SDS011;49;48.530;9.200;2022-12-28T02:31:34;33.50;;;16.23;;
417;SDS011;49;48.530;9.200;2022-12-28T02:34:32;34.13;;;16.00;;
417;SDS011;49;48.530;9.200;2022-12-28T02:37:25;34.07;;;17.40;;
417;SDS011;49;48.530;9.200;2022-12-28T02:40:04;34.73;;;16.80;;
417;SDS011;49;48.530;9.200;2022-12-28T02:42:56;28.27;;;16.13;;
417;SDS011;49;48.530;9.200;2022-12-28T02:45:40;24.90;;;14.87;;
417;SDS011;49;48.530;9.200;2022-12-28T02:48:36;30.93;;;15.70;;
417;SDS011;49;48.530;9.200;2022-12-28T02:51:40;28.13;;;15.07;;
417;SDS011;49;48.530;9.200;2022-12-28T02:54:53;31.50;;;16.97;;
417;SDS011;49;48.530;9.200;2022-12-28T02:58:07;27.77;;;15.50;;
417;SDS011;49;48.530;9.200;2022-12-28T03:00:55;23.03;;;15.17;;
417;SDS011;49;48.530;9.200;2022-12-28T03:03:38;24.10;;;15.67;;
417;SDS011;49;48.530;9.200;2022-12-28T03:06:22;30.30;;;15.60;;
417;SDS011;49;48.530;9.200;2022-12-28T03:09:24;34.13;;;14.50;;
417;SDS011;49;48.530;9.200;2022-12-28T03:12:00;23.60;;;15.93;;
417;SDS011;49;48.530;9.200;2022-12-28T03:14:47;33.30;;;15.70;;
417;SDS011;49;48.530;9.200;2022-12-28T03:17:37;26.80;;;14.90;;
417;SDS011;49;48.530;9.200;2022-12-28T03:20:28;30.50;;;14.27;;
417;SDS011;49;48.530;9.200;2022-12-28T03:23:22;25.87;;;14.57;;
417;SDS011;49;48.530;9.200;2022-12-28T03:26:14;22.90;;;15.40;;
417;SDS011;49;48.530;9.200;2022-12-28T03:28:59;28.83;;;15.10;;
417;SDS011;49;48.530;9.200;2022-12-28T03:31:55;32.60;;;15.50;;
417;SDS011;49;48.530;9.200;2022-12-28T03:34:27;24.13;;;13.50;;
417;SDS011;49;48.530;9.200;2022-12-28T03:37:09;24.33;;;15.07;;
417;SDS011;49;48.530;9.200;2022-12-28T03:39:50;23.90;;;13.60;;
417;SDS011;49;48.530;9.200;2022-12-28T03:42:41;28.43;;;16.67;;
417;SDS011;49;48.530;9.200;2022-12-28T03:45:43;25.43;;;14.90;;
417;SDS011;49;48.530;9.200;2022-12-28T03:48:23;21.97;;;13.20;;
417;SDS011;49;48.530;9.200;2022-12-28T03:54:05;34.60;;;17.83;;
417;SDS011;49;48.530;9.200;2022-12-28T03:56:39;26.77;;;17.60;;
417;SDS011;49;48.530;9.200;2022-12-28T03:59:14;26.83;;;17.30;;
417;SDS011;49;48.530;9.200;2022-12-28T04:01:51;24.00;;;14.30;;
417;SDS011;49;48.530;9.200;2022-12-28T04:04:28;19.17;;;13.53;;
417;SDS011;49;48.530;9.200;2022-12-28T04:07:32;22.50;;;12.90;;
417;SDS011;49;48.530;9.200;2022-12-28T04:10:18;19.77;;;13.27;;
417;SDS011;49;48.530;9.200;2022-12-28T04:12:56;20.60;;;13.23;;
417;SDS011;49;48.530;9.200;2022-12-28T04:15:28;19.93;;;12.90;;
417;SDS011;49;48.530;9.200;2022-12-28T04:18:11;21.03;;;11.87;;
417;SDS011;49;48.530;9.200;2022-12-28T04:20:53;19.10;;;12.07;;
417;SDS011;49;48.530;9.200;2022-12-28T04:23:23;26.30;;;13.40;;
417;SDS011;49;48.530;9.200;2022-12-28T04:26:07;20.07;;;12.00;;
417;SDS011;49;48.530;9.200;2022-12-28T04:28:45;20.27;;;12.50;;
417;SDS011;49;48.530;9.200;2022-12-28T04:31:15;21.93;;;10.27;;
417;SDS011;49;48.530;9.200;2022-12-28T04:33:59;24.70;;;11.60;;
417;SDS011;49;48.530;9.200;2022-12-28T04:36:31;14.33;;;9.10;;
417;SDS011;49;48.530;9.200;2022-12-28T04:39:17;15.00;;;9.30;;
417;SDS011;49;48.530;9.200;2022-12-28T04:41:49;19.37;;;9.67;;
417;SDS011;49;48.530;9.200;2022-12-28T04:44:29;16.23;;;9.63;;
417;SDS011;49;48.530;9.200;2022-12-28T04:46:59;12.00;;;8.43;;
417;SDS011;49;48.530;9.200;2022-12-28T04:49:37;23.97;;;13.60;;
417;SDS011;49;48.530;9.200;2022-12-28T04:52:07;19.33;;;11.70;;
417;SDS011;49;48.530;9.200;2022-12-28T04:54:41;19.60;;;12.07;;
417;SDS011;49;48.530;9.200;2022-12-28T04:57:20;22.57;;;11.23;;
417;SDS011;49;48.530;9.200;2022-12-28T04:59:51;18.53;;;11.10;;
417;SDS011;49;48.530;9.200;2022-12-28T05:02:24;16.33;;;10.10;;
417;SDS011;49;48.530;9.200;2022-12-28T05:05:01;19.37;;;9.87;;
417;SDS011;49;48.530;9.200;2022-12-28T05:07:42;15.83;;;10.10;;
417;SDS011;49;48.530;9.200;2022-12-28T05:10:19;17.60;;;9.40;;
417;SDS011;49;48.530;9.200;2022-12-28T05:12:57;14.87;;;9.07;;
417;SDS011;49;48.530;9.200;2022-12-28T05:15:29;15.40;;;10.30;;
417;SDS011;49;48.530;9.200;2022-12-28T05:18:07;21.83;;;9.87;;
417;SDS011;49;48.530;9.200;2022-12-28T05:20:39;12.30;;;9.07;;
417;SDS011;49;48.530;9.200;2022-12-28T05:23:15;15.70;;;8.13;;
417;SDS011;49;48.530;9.200;2022-12-28T05:25:43;17.17;;;8.17;;
417;SDS011;49;48.530;9.200;2022-12-28T05:28:29;12.63;;;7.30;;
417;SDS011;49;48.530;9.200;2022-12-28T05:31:02;11.00;;;7.73;;
417;SDS011;49;48.530;9.200;2022-12-28T05:33:37;13.60;;;6.63;;
417;SDS011;49;48.530;9.200;2022-12-28T05:36:19;13.73;;;7.87;;
417;SDS011;49;48.530;9.200;2022-12-28T05:38:57;15.30;;;7.20;;
417;SDS011;49;48.530;9.200;2022-12-28T05:41:32;8.60;;;6.10;;
417;SDS011;49;48.530;9.200;2022-12-28T05:44:11;9.40;;;7.10;;
417;SDS011;49;48.530;9.200;2022-12-28T05:46:47;10.00;;;6.60;;
417;SDS011;49;48.530;9.200;2022-12-28T05:49:21;9.80;;;6.07;;
417;SDS011;49;48.530;9.200;2022-12-28T05:51:52;9.03;;;6.30;;
417;SDS011;49;48.530;9.200;2022-12-28T05:54:35;9.33;;;5.63;;
417;SDS011;49;48.530;9.200;2022-12-28T05:57:21;11.67;;;5.93;;
417;SDS011;49;48.530;9.200;2022-12-28T06:00:08;20.73;;;10.93;;
417;SDS011;49;48.530;9.200;2022-12-28T06:02:43;9.33;;;6.07;;
417;SDS011;49;48.530;9.200;2022-12-28T06:05:25;8.20;;;5.20;;
417;SDS011;49;48.530;9.200;2022-12-28T06:07:58;7.63;;;4.80;;
417;SDS011;49;48.530;9.200;2022-12-28T06:10:51;5.90;;;5.17;;
417;SDS011;49;48.530;9.200;2022-12-28T06:13:28;7.50;;;5.10;;
417;SDS011;49;48.530;9.200;2022-12-28T06:16:08;7.77;;;4.93;;
417;SDS011;49;48.530;9.200;2022-12-28T06:18:42;11.53;;;5.87;;
417;SDS011;49;48.530;9.200;2022-12-28T06:21:39;8.87;;;5.20;;
417;SDS011;49;48.530;9.200;2022-12-28T06:24:33;6.30;;;4.90;;
417;SDS011;49;48.530;9.200;2022-12-28T06:27:11;7.93;;;5.30;;
417;SDS011;49;48.530;9.200;2022-12-28T06:29:48;7.70;;;4.90;;
417;SDS011;49;48.530;9.200;2022-12-28T06:32:26;10.30;;;5.13;;
417;SDS011;49;48.530;9.200;2022-12-28T06:35:17;9.00;;;5.07;;
417;SDS011;49;48.530;9.200;2022-12-28T06:38:02;10.40;;;6.20;;
417;SDS011;49;48.530;9.200;2022-12-28T06:40:46;7.77;;;5.70;;
417;SDS011;49;48.530;9.200;2022-12-28T06:43:41;11.70;;;6.23;;
417;SDS011;49;48.530;9.200;2022-12-28T06:46:26;21.30;;;10.13;;
417;SDS011;49;48.530;9.200;2022-12-28T06:49:03;22.83;;;11.80;;
417;SDS011;49;48.530;9.200;2022-12-28T06:51:37;15.77;;;8.57;;
417;SDS011;49;48.530;9.200;2022-12-28T06:54:12;14.70;;;7.93;;
417;SDS011;49;48.530;9.200;2022-12-28T06:56:52;15.27;;;7.90;;
417;SDS011;49;48.530;9.200;2022-12-28T06:59:26;14.30;;;8.50;;
417;SDS011;49;48.530;9.200;2022-12-28T07:02:00;16.53;;;9.03;;
417;SDS011;49;48.530;9.200;2022-12-28T07:04:44;14.10;;;8.87;;
417;SDS011;49;48.530;9.200;2022-12-28T07:07:20;17.40;;;10.50;;
417;SDS011;49;48.530;9.200;2022-12-28T07:10:05;14.73;;;8.63;;
417;SDS011;49;48.530;9.200;2022-12-28T07:12:57;17.53;;;9.80;;
417;SDS011;49;48.530;9.200;2022-12-28T07:19:08;20.80;;;14.20;;
417;SDS011;49;48.530;9.200;2022-12-28T07:22:02;29.43;;;13.83;;
417;SDS011;49;48.530;9.200;2022-12-28T07:24:49;44.33;;;16.67;;
417;SDS011;49;48.530;9.200;2022-12-28T07:27:30;28.23;;;14.90;;
417;SDS011;49;48.530;9.200;2022-12-28T07:30:04;27.83;;;13.37;;
417;SDS011;49;48.530;9.200;2022-12-28T07:32:40;16.07;;;9.90;;
417;SDS011;49;48.530;9.200;2022-12-28T07:35:35;22.40;;;13.40;;
417;SDS011;49;48.530;9.200;2022-12-28T07:38:10;30.00;;;15.90;;
417;SDS011;49;48.530;9.200;2022-12-28T07:40:46;34.70;;;19.17;;
417;SDS011;49;48.530;9.200;2022-12-28T07:46:16;64.83;;;30.90;;
417;SDS011;49;48.530;9.200;2022-12-28T07:48:52;32.97;;;18.57;;
417;SDS011;49;48.530;9.200;2022-12-28T07:51:21;46.33;;;18.33;;
417;SDS011;49;48.530;9.200;2022-12-28T07:54:10;27.40;;;16.10;;
417;SDS011;49;48.530;9.200;2022-12-28T07:56:56;19.70;;;12.77;;
417;SDS011;49;48.530;9.200;2022-12-28T07:59:26;18.17;;;12.20;;
417;SDS011;49;48.530;9.200;2022-12-28T08:02:03;17.70;;;11.70;;
417;SDS011;49;48.530;9.200;2022-12-28T08:04:40;22.60;;;12.83;;
417;SDS011;49;48.530;9.200;2022-12-28T08:07:10;38.70;;;19.10;;
417;SDS011;49;48.530;9.200;2022-12-28T08:09:55;18.80;;;11.27;;
417;SDS011;49;48.530;9.200;2022-12-28T08:12:31;21.07;;;12.17;;
417;SDS011;49;48.530;9.200;2022-12-28T08:15:15;14.90;;;10.87;;
417;SDS011;49;48.530;9.200;2022-12-28T08:18:07;20.33;;;12.17;;
417;SDS011;49;48.530;9.200;2022-12-28T08:20:58;18.70;;;11.10;;
417;SDS011;49;48.530;9.200;2022-12-28T08:24:01;17.50;;;10.03;;
417;SDS011;49;48.530;9.200;2022-12-28T08:26:47;12.90;;;8.50;;
417;SDS011;49;48.530;9.200;2022-12-28T08:29:23;17.93;;;10.37;;
417;SDS011;49;48.530;9.200;2022-12-28T08:32:28;15.60;;;10.10;;
417;SDS011;49;48.530;9.200;2022-12-28T08:35:26;16.33;;;9.50;;
417;SDS011;49;48.530;9.200;2022-12-28T08:38:21;13.07;;;7.43;;
417;SDS011;49;48.530;9.200;2022-12-28T08:41:12;17.13;;;8.37;;
417;SDS011;49;48.530;9.200;2022-12-28T08:43:57;12.10;;;6.73;;
417;SDS011;49;48.530;9.200;2022-12-28T08:46:52;13.00;;;8.50;;
417;SDS011;49;48.530;9.200;2022-12-28T08:49:46;13.10;;;5.73;;
417;SDS011;49;48.530;9.200;2022-12-28T08:52:30;23.50;;;7.40;;
417;SDS011;49;48.530;9.200;2022-12-28T08:55:24;19.13;;;8.40;;
417;SDS011;49;48.530;9.200;2022-12-28T08:57:54;17.30;;;7.07;;
417;SDS011;49;48.530;9.200;2022-12-28T09:00:31;12.53;;;5.93;;
417;SDS011;49;48.530;9.200;2022-12-28T09:03:25;13.13;;;7.10;;
417;SDS011;49;48.530;9.200;2022-12-28T09:06:02;7.53;;;5.43;;
417;SDS011;49;48.530;9.200;2022-12-28T09:08:44;8.73;;;5.07;;
417;SDS011;49;48.530;9.200;2022-12-28T09:11:27;11.73;;;5.17;;
417;SDS011;49;48.530;9.200;2022-12-28T09:14:07;7.93;;;4.93;;
417;SDS011;49;48.530;9.200;2022-12-28T09:16:46;9.73;;;5.30;;
417;SDS011;49;48.530;9.200;2022-12-28T09:19:15;8.30;;;5.07;;
417;SDS011;49;48.530;9.200;2022-12-28T09:21:47;6.20;;;4.90;;
417;SDS011;49;48.530;9.200;2022-12-28T09:24:36;9.23;;;4.90;;
417;SDS011;49;48.530;9.200;2022-12-28T09:27:19;8.73;;;5.43;;
417;SDS011;49;48.530;9.200;2022-12-28T09:29:52;6.70;;;5.33;;
417;SDS011;49;48.530;9.200;2022-12-28T09:35:59;8.80;;;5.43;;
417;SDS011;49;48.530;9.200;2022-12-28T09:39:04;13.70;;;5.27;;
417;SDS011;49;48.530;9.200;2022-12-28T09:41:42;6.93;;;5.10;;
417;SDS011;49;48.530;9.200;2022-12-28T09:47:39;7.27;;;4.83;;
417;SDS011;49;48.530;9.200;2022-12-28T09:56:33;18.57;;;4.83;;
417;SDS011;49;48.530;9.200;2022-12-28T09:59:29;10.60;;;5.10;;
417;SDS011;49;48.530;9.200;2022-12-28T10:05:52;9.63;;;4.80;;
417;SDS011;49;48.530;9.200;2022-12-28T10:08:48;6.80;;;4.90;;
417;SDS011;49;48.530;9.200;2022-12-28T10:11:29;6.93;;;5.10;;
417;SDS011;49;48.530;9.200;2022-12-28T10:14:36;8.73;;;5.97;;
417;SDS011;49;48.530;9.200;2022-12-28T10:17:27;6.37;;;4.90;;
417;SDS011;49;48.530;9.200;2022-12-28T10:23:38;8.20;;;6.27;;
417;SDS011;49;48.530;9.200;2022-12-28T10:26:17;7.67;;;5.53;;
417;SDS011;49;48.530;9.200;2022-12-28T10:29:21;8.07;;;5.00;;
417;SDS011;49;48.530;9.200;2022-12-28T10:31:58;7.30;;;5.30;;
417;SDS011;49;48.530;9.200;2022-12-28T10:34:28;11.20;;;5.13;;
417;SDS011;49;48.530;9.200;2022-12-28T10:37:11;7.63;;;5.30;;
417;SDS011;49;48.530;9.200;2022-12-28T10:39:56;11.70;;;5.50;;
417;SDS011;49;48.530;9.200;2022-12-28T10:42:54;7.33;;;4.63;;
417;SDS011;49;48.530;9.200;2022-12-28T10:45:44;12.60;;;5.23;;
417;SDS011;49;48.530;9.200;2022-12-28T10:48:34;8.10;;;5.13;;
417;SDS011;49;48.530;9.200;2022-12-28T10:51:12;7.20;;;4.67;;
417;SDS011;49;48.530;9.200;2022-12-28T10:53:55;13.63;;;5.50;;
417;SDS011;49;48.530;9.200;2022-12-28T10:56:43;5.73;;;4.00;;
417;SDS011;49;48.530;9.200;2022-12-28T10:59:30;5.03;;;4.10;;
417;SDS011;49;48.530;9.200;2022-12-28T11:02:28;4.10;;;3.50;;
417;SDS011;49;48.530;9.200;2022-12-28T11:05:26;6.47;;;4.70;;
417;SDS011;49;48.530;9.200;2022-12-28T11:08:02;8.23;;;4.13;;
417;SDS011;49;48.530;9.200;2022-12-28T11:10:55;5.27;;;4.00;;
417;SDS011;49;48.530;9.200;2022-12-28T11:13:30;7.83;;;4.20;;
417;SDS011;49;48.530;9.200;2022-12-28T11:16:07;8.57;;;4.00;;
417;SDS011;49;48.530;9.200;2022-12-28T11:18:47;9.23;;;4.17;;
417;SDS011;49;48.530;9.200;2022-12-28T11:21:18;6.00;;;3.83;;
417;SDS011;49;48.530;9.200;2022-12-28T11:23:49;8.40;;;4.63;;
417;SDS011;49;48.530;9.200;2022-12-28T11:26:22;4.10;;;3.80;;
417;SDS011;49;48.530;9.200;2022-12-28T11:28:55;7.80;;;3.73;;
417;SDS011;49;48.530;9.200;2022-12-28T11:31:26;7.00;;;3.77;;
417;SDS011;49;48.530;9.200;2022-12-28T11:34:04;8.07;;;3.83;;
417;SDS011;49;48.530;9.200;2022-12-28T11:36:40;5.00;;;3.50;;
417;SDS011;49;48.530;9.200;2022-12-28T11:44:54;16.80;;;4.03;;
417;SDS011;49;48.530;9.200;2022-12-28T11:47:26;7.20;;;3.80;;
417;SDS011;49;48.530;9.200;2022-12-28T11:53:16;5.40;;;3.50;;
417;SDS011;49;48.530;9.200;2022-12-28T11:55:55;7.50;;;3.73;;
417;SDS011;49;48.530;9.200;2022-12-28T12:01:43;4.93;;;2.93;;
417;SDS011;49;48.530;9.200;2022-12-28T12:04:29;4.63;;;2.90;;
417;SDS011;49;48.530;9.200;2022-12-28T12:16:40;8.00;;;3.10;;
417;SDS011;49;48.530;9.200;2022-12-28T12:19:13;5.43;;;2.70;;
417;SDS011;49;48.530;9.200;2022-12-28T12:21:47;5.40;;;3.50;;
417;SDS011;49;48.530;9.200;2022-12-28T12:24:26;3.47;;;2.90;;
417;SDS011;49;48.530;9.200;2022-12-28T12:27:01;3.77;;;3.03;;
417;SDS011;49;48.530;9.200;2022-12-28T12:29:45;6.90;;;3.30;;
417;SDS011;49;48.530;9.200;2022-12-28T12:32:20;10.60;;;4.00;;
417;SDS011;49;48.530;9.200;2022-12-28T12:34:51;6.73;;;3.63;;
417;SDS011;49;48.530;9.200;2022-12-28T12:43:24;5.27;;;3.60;;
417;SDS011;49;48.530;9.200;2022-12-28T12:45:59;4.97;;;3.50;;
417;SDS011;49;48.530;9.200;2022-12-28T12:48:51;8.40;;;3.70;;
417;SDS011;49;48.530;9.200;2022-12-28T12:51:35;8.17;;;4.33;;
417;SDS011;49;48.530;9.200;2022-12-28T12:54:16;6.23;;;3.50;;
417;SDS011;49;48.530;9.200;2022-12-28T12:56:52;4.30;;;3.00;;
417;SDS011;49;48.530;9.200;2022-12-28T12:59:30;3.60;;;2.60;;
417;SDS011;49;48.530;9.200;2022-12-28T13:02:20;10.27;;;2.77;;
417;SDS011;49;48.530;9.200;2022-12-28T13:05:00;5.17;;;2.73;;
417;SDS011;49;48.530;9.200;2022-12-28T13:07:28;4.60;;;2.47;;
417;SDS011;49;48.530;9.200;2022-12-28T13:10:01;5.30;;;2.50;;
417;SDS011;49;48.530;9.200;2022-12-28T13:12:32;4.77;;;2.50;;
417;SDS011;49;48.530;9.200;2022-12-28T13:15:03;9.23;;;3.10;;
417;SDS011;49;48.530;9.200;2022-12-28T13:17:31;5.83;;;2.20;;
417;SDS011;49;48.530;9.200;2022-12-28T13:20:09;3.20;;;2.60;;
417;SDS011;49;48.530;9.200;2022-12-28T13:22:44;7.03;;;2.83;;
417;SDS011;49;48.530;9.200;2022-12-28T13:25:21;4.70;;;2.57;;
417;SDS011;49;48.530;9.200;2022-12-28T13:27:49;3.50;;;2.30;;
417;SDS011;49;48.530;9.200;2022-12-28T13:30:18;4.00;;;2.50;;
417;SDS011;49;48.530;9.200;2022-12-28T13:32:48;4.03;;;2.80;;
417;SDS011;49;48.530;9.200;2022-12-28T13:35:25;4.50;;;2.80;;
417;SDS011;49;48.530;9.200;2022-12-28T13:37:57;4.93;;;2.80;;
417;SDS011;49;48.530;9.200;2022-12-28T13:40:26;4.17;;;2.80;;
417;SDS011;49;48.530;9.200;2022-12-28T13:42:55;3.97;;;3.13;;
417;SDS011;49;48.530;9.200;2022-12-28T13:45:44;10.67;;;3.80;;
417;SDS011;49;48.530;9.200;2022-12-28T13:48:16;8.47;;;3.67;;
417;SDS011;49;48.530;9.200;2022-12-28T13:50:44;4.40;;;3.37;;
417;SDS011;49;48.530;9.200;2022-12-28T13:53:12;7.90;;;3.20;;
417;SDS011;49;48.530;9.200;2022-12-28T13:55:43;7.60;;;3.60;;
417;SDS011;49;48.530;9.200;2022-12-28T13:58:14;5.87;;;3.30;;
417;SDS011;49;48.530;9.200;2022-12-28T14:00:46;4.50;;;3.20;;
417;SDS011;49;48.530;9.200;2022-12-28T14:03:14;15.87;;;10.30;;
417;SDS011;49;48.530;9.200;2022-12-28T14:05:42;12.00;;;4.20;;
417;SDS011;49;48.530;9.200;2022-12-28T14:08:11;9.90;;;4.90;;
417;SDS011;49;48.530;9.200;2022-12-28T14:10:39;6.73;;;4.03;;
417;SDS011;49;48.530;9.200;2022-12-28T14:13:07;13.67;;;4.80;;
417;SDS011;49;48.530;9.200;2022-12-28T14:15:35;21.30;;;5.60;;
417;SDS011;49;48.530;9.200;2022-12-28T14:18:06;9.80;;;3.93;;
417;SDS011;49;48.530;9.200;2022-12-28T14:20:44;5.90;;;3.50;;
417;SDS011;49;48.530;9.200;2022-12-28T14:23:18;5.80;;;4.30;;
417;SDS011;49;48.530;9.200;2022-12-28T14:25:46;11.30;;;7.80;;
417;SDS011;49;48.530;9.200;2022-12-28T14:28:17;9.53;;;5.77;;
417;SDS011;49;48.530;9.200;2022-12-28T14:30:50;11.33;;;8.40;;
417;SDS011;49;48.530;9.200;2022-12-28T14:33:21;8.90;;;5.10;;
417;SDS011;49;48.530;9.200;2022-12-28T14:35:51;7.00;;;4.50;;
417;SDS011;49;48.530;9.200;2022-12-28T14:38:22;7.90;;;4.93;;
417;SDS011;49;48.530;9.200;2022-12-28T14:40:54;8.87;;;4.70;;
417;SDS011;49;48.530;9.200;2022-12-28T14:43:23;13.60;;;4.60;;
417;SDS011;49;48.530;9.200;2022-12-28T14:45:52;8.67;;;4.17;;
417;SDS011;49;48.530;9.200;2022-12-28T14:48:22;7.87;;;4.47;;
417;SDS011;49;48.530;9.200;2022-12-28T14:50:56;6.73;;;4.07;;
417;SDS011;49;48.530;9.200;2022-12-28T14:53:27;9.80;;;4.23;;
417;SDS011;49;48.530;9.200;2022-12-28T14:55:55;11.20;;;4.60;;
417;SDS011;49;48.530;9.200;2022-12-28T14:58:35;7.80;;;4.10;;
417;SDS011;49;48.530;9.200;2022-12-28T15:01:11;6.87;;;4.57;;
417;SDS011;49;48.530;9.200;2022-12-28T15:03:51;10.13;;;4.40;;
417;SDS011;49;48.530;9.200;2022-12-28T15:06:18;8.40;;;4.70;;
417;SDS011;49;48.530;9.200;2022-12-28T15:08:51;6.87;;;4.33;;
417;SDS011;49;48.530;9.200;2022-12-28T15:11:20;12.23;;;4.20;;
417;SDS011;49;48.530;9.200;2022-12-28T15:13:48;5.17;;;3.80;;
417;SDS011;49;48.530;9.200;2022-12-28T15:16:16;6.60;;;4.30;;
417;SDS011;49;48.530;9.200;2022-12-28T15:18:44;7.10;;;4.70;;
417;SDS011;49;48.530;9.200;2022-12-28T15:21:13;8.33;;;4.63;;
417;SDS011;49;48.530;9.200;2022-12-28T15:23:41;10.10;;;5.30;;
417;SDS011;49;48.530;9.200;2022-12-28T15:26:09;11.00;;;4.37;;
417;SDS011;49;48.530;9.200;2022-12-28T15:28:38;9.67;;;6.23;;
417;SDS011;49;48.530;9.200;2022-12-28T15:31:08;5.80;;;4.00;;
417;SDS011;49;48.530;9.200;2022-12-28T15:33:36;8.53;;;4.00;;
417;SDS011;49;48.530;9.200;2022-12-28T15:36:04;7.00;;;3.90;;
417;SDS011;49;48.530;9.200;2022-12-28T15:38:41;7.53;;;4.00;;
417;SDS011;49;48.530;9.200;2022-12-28T15:41:09;6.40;;;3.90;;
417;SDS011;49;48.530;9.200;2022-12-28T15:43:50;6.80;;;4.07;;
417;SDS011;49;48.530;9.200;2022-12-28T15:46:17;5.93;;;3.50;;
417;SDS011;49;48.530;9.200;2022-12-28T15:48:46;6.80;;;3.50;;
417;SDS011;49;48.530;9.200;2022-12-28T15:51:13;6.27;;;3.60;;
417;SDS011;49;48.530;9.200;2022-12-28T15:53:42;5.63;;;4.00;;
417;SDS011;49;48.530;9.200;2022-12-28T15:56:17;6.20;;;3.90;;
417;SDS011;49;48.530;9.200;2022-12-28T15:58:46;7.53;;;3.60;;
417;SDS011;49;48.530;9.200;2022-12-28T16:01:13;6.03;;;3.73;;
417;SDS011;49;48.530;9.200;2022-12-28T16:03:41;5.03;;;3.30;;
417;SDS011;49;48.530;9.200;2022-12-28T16:06:07;5.43;;;3.07;;
417;SDS011;49;48.530;9.200;2022-12-28T16:08:35;8.40;;;4.33;;
417;SDS011;49;48.530;9.200;2022-12-28T16:11:10;8.20;;;4.77;;
417;SDS011;49;48.530;9.200;2022-12-28T16:13:41;6.60;;;4.00;;
417;SDS011;49;48.530;9.200;2022-12-28T16:16:10;8.13;;;3.90;;
417;SDS011;49;48.530;9.200;2022-12-28T16:18:42;7.83;;;4.47;;
417;SDS011;49;48.530;9.200;2022-12-28T16:21:11;6.30;;;4.17;;
417;SDS011;49;48.530;9.200;2022-12-28T16:23:38;8.50;;;4.40;;
417;SDS011;49;48.530;9.200;2022-12-28T16:26:10;5.20;;;3.97;;
417;SDS011;49;48.530;9.200;2022-12-28T16:28:38;6.47;;;3.93;;
417;SDS011;49;48.530;9.200;2022-12-28T16:31:06;11.43;;;4.27;;
417;SDS011;49;48.530;9.200;2022-12-28T16:33:51;8.80;;;4.60;;
417;SDS011;49;48.530;9.200;2022-12-28T16:36:19;4.63;;;3.53;;
417;SDS011;49;48.530;9.200;2022-12-28T16:38:46;9.87;;;4.30;;
417;SDS011;49;48.530;9.200;2022-12-28T16:41:14;11.07;;;5.17;;
417;SDS011;49;48.530;9.200;2022-12-28T16:43:42;9.47;;;4.80;;
417;SDS011;49;48.530;9.200;2022-12-28T16:46:09;8.97;;;4.90;;
417;SDS011;49;48.530;9.200;2022-12-28T16:48:37;7.70;;;5.00;;
417;SDS011;49;48.530;9.200;2022-12-28T16:51:06;8.43;;;4.60;;
417;SDS011;49;48.530;9.200;2022-12-28T16:53:45;6.50;;;4.30;;
417;SDS011;49;48.530;9.200;2022-12-28T16:56:12;7.33;;;4.60;;
417;SDS011;49;48.530;9.200;2022-12-28T16:58:40;4.97;;;3.70;;
417;SDS011;49;48.530;9.200;2022-12-28T17:01:09;6.97;;;5.03;;
417;SDS011;49;48.530;9.200;2022-12-28T17:03:37;17.20;;;11.73;;
417;SDS011;49;48.530;9.200;2022-12-28T17:06:04;6.50;;;4.70;;
417;SDS011;49;48.530;9.200;2022-12-28T17:08:32;8.50;;;4.23;;
417;SDS011;49;48.530;9.200;2022-12-28T17:11:02;6.67;;;4.83;;
417;SDS011;49;48.530;9.200;2022-12-28T17:13:34;11.93;;;5.40;;
417;SDS011;49;48.530;9.200;2022-12-28T17:16:02;7.80;;;4.80;;
417;SDS011;49;48.530;9.200;2022-12-28T17:18:32;6.80;;;5.27;;
417;SDS011;49;48.530;9.200;2022-12-28T17:21:00;7.13;;;5.23;;
417;SDS011;49;48.530;9.200;2022-12-28T17:23:27;7.73;;;4.60;;
417;SDS011;49;48.530;9.200;2022-12-28T17:25:54;6.50;;;5.17;;
417;SDS011;49;48.530;9.200;2022-12-28T17:28:22;5.40;;;4.40;;
417;SDS011;49;48.530;9.200;2022-12-28T17:30:59;8.00;;;5.17;;
417;SDS011;49;48.530;9.200;2022-12-28T17:33:30;8.00;;;5.10;;
417;SDS011;49;48.530;9.200;2022-12-28T17:36:14;10.67;;;5.13;;
417;SDS011;49;48.530;9.200;2022-12-28T17:38:41;7.33;;;4.70;;
417;SDS011;49;48.530;9.200;2022-12-28T17:41:14;9.53;;;5.40;;
417;SDS011;49;48.530;9.200;2022-12-28T17:43:44;7.73;;;4.77;;
417;SDS011;49;48.530;9.200;2022-12-28T17:46:15;8.60;;;5.30;;
417;SDS011;49;48.530;9.200;2022-12-28T17:48:45;9.60;;;5.40;;
417;SDS011;49;48.530;9.200;2022-12-28T17:54:06;8.70;;;5.27;;
417;SDS011;49;48.530;9.200;2022-12-28T17:56:43;7.57;;;4.60;;
417;SDS011;49;48.530;9.200;2022-12-28T17:59:16;7.30;;;5.30;;
417;SDS011;49;48.530;9.200;2022-12-28T18:01:44;6.40;;;4.60;;
417;SDS011;49;48.530;9.200;2022-12-28T18:04:11;8.97;;;5.00;;
417;SDS011;49;48.530;9.200;2022-12-28T18:06:40;10.10;;;5.03;;
417;SDS011;49;48.530;9.200;2022-12-28T18:09:10;7.20;;;4.80;;
417;SDS011;49;48.530;9.200;2022-12-28T18:11:40;5.90;;;4.40;;
417;SDS011;49;48.530;9.200;2022-12-28T18:14:19;8.33;;;4.70;;
417;SDS011;49;48.530;9.200;2022-12-28T18:17:08;11.60;;;4.77;;
417;SDS011;49;48.530;9.200;2022-12-28T18:19:37;6.60;;;4.60;;
417;SDS011;49;48.530;9.200;2022-12-28T18:22:04;9.60;;;5.10;;
417;SDS011;49;48.530;9.200;2022-12-28T18:24:32;6.60;;;4.83;;
417;SDS011;49;48.530;9.200;2022-12-28T18:27:17;7.90;;;5.07;;
417;SDS011;49;48.530;9.200;2022-12-28T18:30:11;7.83;;;5.03;;
417;SDS011;49;48.530;9.200;2022-12-28T18:32:41;8.23;;;5.33;;
417;SDS011;49;48.530;9.200;2022-12-28T18:35:08;7.87;;;5.00;;
417;SDS011;49;48.530;9.200;2022-12-28T18:37:37;7.73;;;4.63;;
417;SDS011;49;48.530;9.200;2022-12-28T18:40:19;7.40;;;4.63;;
417;SDS011;49;48.530;9.200;2022-12-28T18:46:02;7.73;;;4.97;;
417;SDS011;49;48.530;9.200;2022-12-28T18:48:36;8.60;;;5.10;;
417;SDS011;49;48.530;9.200;2022-12-28T18:51:06;6.67;;;4.90;;
417;SDS011;49;48.530;9.200;2022-12-28T18:53:35;6.73;;;4.57;;
417;SDS011;49;48.530;9.200;2022-12-28T18:56:04;6.77;;;4.60;;
417;SDS011;49;48.530;9.200;2022-12-28T18:58:33;6.47;;;4.70;;
417;SDS011;49;48.530;9.200;2022-12-28T19:01:01;8.50;;;5.20;;
417;SDS011;49;48.530;9.200;2022-12-28T19:03:28;8.37;;;4.70;;